Time;durP1;ratioP1;P1;durP2;ratioP2;P2;SDS_P1;SDS_P2;PMS_P1;PMS_P2;Temp;Humidity;BMP_temperature;BMP_pressure;BME280_temperature;BME280_humidity;BME280_pressure;Samples;Min_cycle;Max_cycle;Signal;HPM_P1;HPM_P2
2021/01/02 00:02:16;;;;;;;;;;;3.20;99.90;;;;;;4980335;28;19914;-80
2021/01/02 00:04:50;;;;;;;;;;;3.20;99.90;;;;;;4997842;28;19920;-81
2021/01/02 00:07:26;;;;;;;;;;;3.30;99.90;;;;;;4999297;28;20405;-81
2021/01/02 00:09:54;;;;;;;;;;;3.20;99.90;;;;;;4999006;28;19984;-81
2021/01/02 00:12:38;;;;;;;;;;;3.20;99.90;;;;;;4999379;28;20385;-81
2021/01/02 00:15:07;;;;;;;;;;;3.20;99.90;;;;;;4981233;28;19910;-81
2021/01/02 00:17:39;;;;;;;;;;;3.20;99.90;;;;;;4981289;28;19914;-81
2021/01/02 00:20:06;;;;;;;;;;;3.20;99.90;;;;;;4981064;28;19914;-81
2021/01/02 00:22:46;;;;;;;;;;;3.10;99.90;;;;;;5013662;28;19972;-81
2021/01/02 00:25:12;;;;;;;;;;;3.10;99.90;;;;;;4981201;28;19910;-81
2021/01/02 00:27:50;;;;;;;;;;;3.10;99.90;;;;;;4999001;28;20302;-81
2021/01/02 00:30:16;;;;;;;;;;;3.00;99.90;;;;;;5013610;28;19913;-81
2021/01/02 00:32:50;;;;;;;;;;;3.00;99.90;;;;;;4997949;28;20389;-81
2021/01/02 00:35:15;;;;;;;;;;;3.00;99.90;;;;;;4997870;28;19921;-81
2021/01/02 00:37:42;;;;;;;;;;;3.00;99.90;;;;;;4998581;28;19913;-81
2021/01/02 00:40:10;;;;;;;;;;;3.00;99.90;;;;;;4996945;28;19914;-81
2021/01/02 00:42:54;;;;;;;;;;;3.10;99.90;;;;;;4998819;28;19992;-81
2021/01/02 00:45:20;;;;;;;;;;;3.10;99.90;;;;;;4980649;28;19924;-81
2021/01/02 00:47:48;;;;;;;;;;;3.10;99.90;;;;;;4982452;28;19910;-81
2021/01/02 00:50:15;;;;;;;;;;;3.20;99.90;;;;;;4998239;28;19953;-81
2021/01/02 00:52:43;;;;;;;;;;;3.20;99.90;;;;;;4998360;28;19964;-81
2021/01/02 00:55:27;;;;;;;;;;;3.30;99.90;;;;;;4993296;28;19921;-81
2021/01/02 00:58:03;;;;;;;;;;;3.30;99.90;;;;;;4995736;28;19914;-81
2021/01/02 01:00:32;;;;;;;;;;;3.30;99.90;;;;;;4980367;28;20270;-81
2021/01/02 01:03:04;;;;;;;;;;;3.30;99.90;;;;;;4963067;28;19914;-81
2021/01/02 01:05:34;;;;;;;;;;;3.40;99.90;;;;;;4981546;28;19944;-81
2021/01/02 01:08:00;;;;;;;;;;;3.40;99.90;;;;;;4998406;28;19910;-81
2021/01/02 01:10:30;;;;;;;;;;;3.40;99.90;;;;;;4998651;28;21428;-81
2021/01/02 01:12:58;;;;;;;;;;;3.40;99.90;;;;;;4979480;28;19917;-81
2021/01/02 01:15:24;;;;;;;;;;;3.40;99.90;;;;;;4992954;28;19976;-81
2021/01/02 01:17:57;;;;;;;;;;;3.40;99.90;;;;;;4980497;28;19910;-81
2021/01/02 01:20:24;;;;;;;;;;;3.40;99.90;;;;;;4980668;28;19917;-81
2021/01/02 01:23:01;;;;;;;;;;;3.40;99.90;;;;;;4997302;28;19926;-81
2021/01/02 01:25:50;;;;;;;;;;;3.40;99.90;;;;;;4998178;28;19914;-81
2021/01/02 01:28:17;;;;;;;;;;;3.40;99.90;;;;;;4996536;28;19914;-81
2021/01/02 01:30:43;;;;;;;;;;;3.40;99.90;;;;;;4980597;28;20294;-81
2021/01/02 01:33:12;;;;;;;;;;;3.40;99.90;;;;;;4997470;28;19926;-81
2021/01/02 01:35:42;;;;;;;;;;;3.40;99.90;;;;;;4998366;28;19910;-81
2021/01/02 01:38:10;;;;;;;;;;;3.40;99.90;;;;;;4997167;28;19914;-81
2021/01/02 01:40:38;;;;;;;;;;;3.40;99.90;;;;;;4998524;28;19914;-81
2021/01/02 01:43:04;;;;;;;;;;;3.40;99.90;;;;;;5013059;28;20301;-81
2021/01/02 01:45:39;;;;;;;;;;;3.40;99.90;;;;;;4980125;28;19997;-81
2021/01/02 01:48:04;;;;;;;;;;;3.40;99.90;;;;;;4995993;28;19945;-81
2021/01/02 01:50:53;;;;;;;;;;;3.40;99.90;;;;;;4997907;28;19918;-81
2021/01/02 01:53:38;;;;;;;;;;;3.40;99.90;;;;;;4955839;28;19918;-81
2021/01/02 01:56:10;;;;;;;;;;;3.50;99.90;;;;;;4997645;28;19941;-81
2021/01/02 01:58:42;;;;;;;;;;;3.40;99.90;;;;;;4995603;28;20305;-81
2021/01/02 02:01:08;;;;;;;;;;;3.40;99.90;;;;;;5012805;28;19913;-81
2021/01/02 02:03:35;;;;;;;;;;;3.40;99.90;;;;;;4996649;28;20013;-81
2021/01/02 02:06:01;;;;;;;;;;;3.40;99.90;;;;;;4996979;28;20286;-81
2021/01/02 02:08:40;;;;;;;;;;;3.40;99.90;;;;;;4999953;28;19914;-81
2021/01/02 02:11:07;;;;;;;;;;;3.40;99.90;;;;;;4984042;28;19921;-81
2021/01/02 02:13:37;;;;;;;;;;;3.40;99.90;;;;;;5000756;28;19921;-81
2021/01/02 02:16:08;;;;;;;;;;;3.40;99.90;;;;;;4983646;28;19914;-81
2021/01/02 02:18:34;;;;;;;;;;;3.40;99.90;;;;;;5000952;28;19991;-81
2021/01/02 02:21:00;;;;;;;;;;;3.40;99.90;;;;;;5001407;28;19910;-81
2021/01/02 02:23:39;;;;;;;;;;;3.40;99.90;;;;;;5016624;28;20374;-81
2021/01/02 02:26:07;;;;;;;;;;;3.40;99.90;;;;;;5000020;28;19921;-81
2021/01/02 02:28:51;;;;;;;;;;;3.40;99.90;;;;;;5015172;28;19913;-81
2021/01/02 02:31:17;;;;;;;;;;;3.40;99.90;;;;;;5000366;28;19917;-81
2021/01/02 02:34:09;;;;;;;;;;;3.40;99.90;;;;;;4983500;28;19914;-81
2021/01/02 02:36:35;;;;;;;;;;;3.40;99.90;;;;;;4992959;28;19914;-81
2021/01/02 02:39:04;;;;;;;;;;;3.40;99.90;;;;;;4985135;28;19921;-81
2021/01/02 02:41:31;;;;;;;;;;;3.40;99.90;;;;;;4999038;28;19953;-81
2021/01/02 02:43:59;;;;;;;;;;;3.40;99.90;;;;;;5003984;28;19918;-81
2021/01/02 02:46:27;;;;;;;;;;;3.40;99.90;;;;;;5002681;28;19952;-81
2021/01/02 02:48:54;;;;;;;;;;;3.40;99.90;;;;;;4999958;28;19969;-81
2021/01/02 02:51:20;;;;;;;;;;;3.40;99.90;;;;;;4999804;28;20004;-81
2021/01/02 02:53:48;;;;;;;;;;;3.30;99.90;;;;;;5000636;28;20359;-81
2021/01/02 02:56:13;;;;;;;;;;;3.30;99.90;;;;;;4999060;28;19953;-81
2021/01/02 02:58:39;;;;;;;;;;;3.30;99.90;;;;;;4998435;28;21307;-81
2021/01/02 03:01:04;;;;;;;;;;;3.30;99.90;;;;;;4981898;28;19914;-81
2021/01/02 03:03:30;;;;;;;;;;;3.30;99.90;;;;;;5015030;28;19960;-81
2021/01/02 03:05:56;;;;;;;;;;;3.30;99.90;;;;;;4999417;28;19921;-81
2021/01/02 03:08:22;;;;;;;;;;;3.30;99.90;;;;;;4998583;28;19921;-81
2021/01/02 03:10:48;;;;;;;;;;;3.30;99.90;;;;;;4983245;28;20459;-81
2021/01/02 03:13:13;;;;;;;;;;;3.30;99.90;;;;;;4982227;28;19917;-81
2021/01/02 03:15:39;;;;;;;;;;;3.30;99.90;;;;;;4999454;28;19910;-81
2021/01/02 03:18:05;;;;;;;;;;;3.30;99.90;;;;;;4997161;28;20082;-81
2021/01/02 03:20:31;;;;;;;;;;;3.30;99.90;;;;;;5000156;28;20013;-81
2021/01/02 03:22:56;;;;;;;;;;;3.30;99.90;;;;;;4998677;28;19917;-81
2021/01/02 03:25:22;;;;;;;;;;;3.20;99.90;;;;;;4999525;28;19910;-81
2021/01/02 03:27:51;;;;;;;;;;;3.30;99.90;;;;;;4999130;28;21812;-81
2021/01/02 03:30:16;;;;;;;;;;;3.30;99.90;;;;;;5000009;28;19910;-81
2021/01/02 03:32:42;;;;;;;;;;;3.30;99.90;;;;;;5000060;28;19917;-81
2021/01/02 03:35:08;;;;;;;;;;;3.30;99.90;;;;;;4981714;28;19964;-81
2021/01/02 03:37:34;;;;;;;;;;;3.30;99.90;;;;;;5000168;28;19918;-81
2021/01/02 03:40:00;;;;;;;;;;;3.20;99.90;;;;;;4997803;28;19917;-81
2021/01/02 03:42:25;;;;;;;;;;;3.30;99.90;;;;;;5014935;28;19918;-81
2021/01/02 03:44:51;;;;;;;;;;;3.30;99.90;;;;;;4998760;28;19914;-81
2021/01/02 03:47:17;;;;;;;;;;;3.30;99.90;;;;;;4999976;28;19910;-81
2021/01/02 03:49:43;;;;;;;;;;;3.30;99.90;;;;;;4999628;28;19968;-80
2021/01/02 03:52:08;;;;;;;;;;;3.30;99.90;;;;;;4981029;28;20017;-81
2021/01/02 03:54:34;;;;;;;;;;;3.30;99.90;;;;;;4999064;28;19914;-81
2021/01/02 03:57:00;;;;;;;;;;;3.30;99.90;;;;;;4999148;28;19921;-81
2021/01/02 03:59:25;;;;;;;;;;;3.30;99.90;;;;;;4987273;28;19921;-81
2021/01/02 04:01:55;;;;;;;;;;;3.30;99.90;;;;;;4983009;28;19910;-81
2021/01/02 04:04:20;;;;;;;;;;;3.30;99.90;;;;;;4998945;28;20000;-81
2021/01/02 04:06:46;;;;;;;;;;;3.40;99.90;;;;;;4998231;28;20345;-81
2021/01/02 04:09:11;;;;;;;;;;;3.40;99.90;;;;;;4982587;28;20008;-81
2021/01/02 04:11:40;;;;;;;;;;;3.40;99.90;;;;;;4998909;28;19924;-80
2021/01/02 04:14:06;;;;;;;;;;;3.40;99.90;;;;;;4997859;28;19968;-81
2021/01/02 04:16:32;;;;;;;;;;;3.40;99.90;;;;;;4998523;28;19909;-81
2021/01/02 04:18:57;;;;;;;;;;;3.40;99.90;;;;;;4998875;28;19917;-81
2021/01/02 04:21:23;;;;;;;;;;;3.40;99.90;;;;;;5000289;28;19917;-81
2021/01/02 04:23:48;;;;;;;;;;;3.40;99.90;;;;;;4981702;28;20349;-81
2021/01/02 04:26:17;;;;;;;;;;;3.40;99.90;;;;;;4982287;28;19910;-81
2021/01/02 04:28:43;;;;;;;;;;;3.40;99.90;;;;;;4997459;28;19920;-81
2021/01/02 04:31:08;;;;;;;;;;;3.40;99.90;;;;;;4996955;28;20424;-81
2021/01/02 04:33:34;;;;;;;;;;;3.40;99.90;;;;;;4980099;28;19914;-81
2021/01/02 04:35:59;;;;;;;;;;;3.50;99.90;;;;;;4998848;28;19915;-81
2021/01/02 04:38:25;;;;;;;;;;;3.50;99.90;;;;;;4981053;28;19910;-81
2021/01/02 04:40:54;;;;;;;;;;;3.50;99.90;;;;;;4999605;28;20343;-81
2021/01/02 04:43:20;;;;;;;;;;;3.50;99.90;;;;;;4998822;28;19957;-81
2021/01/02 04:45:45;;;;;;;;;;;3.50;99.90;;;;;;4981697;28;19910;-81
2021/01/02 04:48:11;;;;;;;;;;;3.50;99.90;;;;;;4999269;28;19932;-81
2021/01/02 04:50:36;;;;;;;;;;;3.50;99.90;;;;;;4998858;28;19920;-81
2021/01/02 04:53:03;;;;;;;;;;;3.40;99.90;;;;;;4998693;28;20032;-81
2021/01/02 04:55:30;;;;;;;;;;;3.50;99.90;;;;;;5013695;28;19910;-81
2021/01/02 04:57:57;;;;;;;;;;;3.40;99.90;;;;;;4998550;28;19914;-81
2021/01/02 05:00:24;;;;;;;;;;;3.50;99.90;;;;;;4999111;28;19910;-81
2021/01/02 05:02:51;;;;;;;;;;;3.50;99.90;;;;;;4997699;28;19964;-81
2021/01/02 05:05:17;;;;;;;;;;;3.40;99.90;;;;;;4981378;28;20008;-81
2021/01/02 05:07:43;;;;;;;;;;;3.40;99.90;;;;;;4997524;28;20016;-81
2021/01/02 05:10:09;;;;;;;;;;;3.50;99.90;;;;;;4998673;28;19952;-81
2021/01/02 05:12:35;;;;;;;;;;;3.50;99.90;;;;;;4980276;28;19917;-81
2021/01/02 05:15:02;;;;;;;;;;;3.50;99.90;;;;;;4981579;28;20374;-81
2021/01/02 05:17:28;;;;;;;;;;;3.50;99.90;;;;;;4998882;28;19925;-81
2021/01/02 05:20:01;;;;;;;;;;;3.50;99.90;;;;;;4998595;28;19910;-81
2021/01/02 05:22:26;;;;;;;;;;;3.50;99.90;;;;;;4996914;28;19914;-82
2021/01/02 05:25:05;;;;;;;;;;;3.50;99.90;;;;;;4996892;28;20400;-81
2021/01/02 05:27:31;;;;;;;;;;;3.50;99.90;;;;;;4998403;28;19910;-81
2021/01/02 05:30:10;;;;;;;;;;;3.50;99.90;;;;;;4998173;28;19956;-81
2021/01/02 05:32:52;;;;;;;;;;;3.50;99.90;;;;;;4998549;28;19914;-81
2021/01/02 05:35:21;;;;;;;;;;;3.50;99.90;;;;;;4998529;28;19918;-81
2021/01/02 05:37:48;;;;;;;;;;;3.50;99.90;;;;;;4997688;28;20363;-81
2021/01/02 05:40:31;;;;;;;;;;;3.50;99.90;;;;;;4995782;28;19968;-81
2021/01/02 05:42:56;;;;;;;;;;;3.50;99.90;;;;;;5001529;28;19921;-82
2021/01/02 05:45:25;;;;;;;;;;;3.40;99.90;;;;;;5002395;28;19917;-81
2021/01/02 05:47:51;;;;;;;;;;;3.40;99.90;;;;;;4985155;28;20274;-81
2021/01/02 05:50:19;;;;;;;;;;;3.40;99.90;;;;;;5017306;28;19920;-81
2021/01/02 05:52:48;;;;;;;;;;;3.40;99.90;;;;;;4984459;28;20325;-81
2021/01/02 05:55:27;;;;;;;;;;;3.30;99.90;;;;;;5002066;28;19928;-81
2021/01/02 05:57:52;;;;;;;;;;;3.30;99.90;;;;;;5017291;28;19937;-81
2021/01/02 06:00:19;;;;;;;;;;;3.30;99.90;;;;;;5002419;28;19917;-82
2021/01/02 06:02:45;;;;;;;;;;;3.30;99.90;;;;;;4990930;28;19925;-81
2021/01/02 06:05:10;;;;;;;;;;;3.20;99.90;;;;;;5007449;28;19910;-81
2021/01/02 06:07:39;;;;;;;;;;;3.30;99.90;;;;;;5000010;28;20366;-80
2021/01/02 06:10:06;;;;;;;;;;;3.30;99.90;;;;;;5001547;28;19921;-80
2021/01/02 06:12:31;;;;;;;;;;;3.30;99.90;;;;;;5001907;28;20285;-80
2021/01/02 06:15:18;;;;;;;;;;;3.30;99.90;;;;;;4999475;28;20008;-80
2021/01/02 06:17:46;;;;;;;;;;;3.30;99.90;;;;;;4999293;28;19914;-80
2021/01/02 06:20:13;;;;;;;;;;;3.30;99.90;;;;;;4999510;28;19964;-80
2021/01/02 06:22:41;;;;;;;;;;;3.30;99.90;;;;;;4999791;28;19920;-80
2021/01/02 06:25:07;;;;;;;;;;;3.30;99.90;;;;;;5000785;28;19960;-80
2021/01/02 06:27:33;;;;;;;;;;;3.30;99.90;;;;;;5001510;28;19956;-80
2021/01/02 06:29:59;;;;;;;;;;;3.30;99.90;;;;;;4983028;28;19918;-80
2021/01/02 06:32:25;;;;;;;;;;;3.20;99.90;;;;;;4984002;28;20060;-80
2021/01/02 06:35:09;;;;;;;;;;;3.20;99.90;;;;;;4983590;28;19953;-80
2021/01/02 06:37:47;;;;;;;;;;;3.30;99.90;;;;;;4985896;28;19914;-80
2021/01/02 06:40:19;;;;;;;;;;;3.30;99.90;;;;;;4982098;28;20051;-79
2021/01/02 06:42:51;;;;;;;;;;;3.30;99.90;;;;;;5000450;28;19917;-80
2021/01/02 06:45:37;;;;;;;;;;;3.30;99.90;;;;;;5000544;28;20012;-80
2021/01/02 06:48:23;;;;;;;;;;;3.30;99.90;;;;;;5038663;22;20019;-80
2021/01/02 06:50:56;;;;;;;;;;;3.30;99.90;;;;;;5039019;28;19924;-79
2021/01/02 06:53:22;;;;;;;;;;;3.30;99.90;;;;;;5019747;28;19917;-79
2021/01/02 06:55:58;;;;;;;;;;;3.20;99.90;;;;;;5039573;28;19932;-79
2021/01/02 06:58:24;;;;;;;;;;;3.20;99.90;;;;;;5038551;28;19909;-78
2021/01/02 07:00:49;;;;;;;;;;;3.20;99.90;;;;;;5040696;28;19917;-81
2021/01/02 07:03:34;;;;;;;;;;;3.20;99.90;;;;;;5039873;28;19921;-80
2021/01/02 07:05:59;;;;;;;;;;;3.20;99.90;;;;;;5038132;28;19914;-80
2021/01/02 07:08:41;;;;;;;;;;;3.20;99.90;;;;;;5040412;28;19909;-80
2021/01/02 07:11:25;;;;;;;;;;;3.20;99.90;;;;;;5037883;28;19917;-81
2021/01/02 07:14:12;;;;;;;;;;;3.20;99.90;;;;;;5036524;28;19936;-80
2021/01/02 07:16:37;;;;;;;;;;;3.20;99.90;;;;;;5037235;28;19914;-83
2021/01/02 07:19:03;;;;;;;;;;;3.20;99.90;;;;;;5036301;28;19932;-82
2021/01/02 07:21:38;;;;;;;;;;;3.30;99.90;;;;;;5038419;28;19920;-82
2021/01/02 07:24:19;;;;;;;;;;;3.40;99.90;;;;;;5037496;28;19958;-82
2021/01/02 07:26:45;;;;;;;;;;;3.50;99.90;;;;;;5037689;28;19913;-83
2021/01/02 07:29:17;;;;;;;;;;;3.50;99.90;;;;;;5037715;28;19924;-81
2021/01/02 07:31:43;;;;;;;;;;;3.50;99.90;;;;;;5039179;28;19974;-84
2021/01/02 07:34:15;;;;;;;;;;;3.50;99.90;;;;;;5038836;28;20401;-81
2021/01/02 07:36:41;;;;;;;;;;;3.50;99.90;;;;;;5038504;28;20053;-82
2021/01/02 07:39:06;;;;;;;;;;;3.50;99.90;;;;;;5038187;28;19917;-81
2021/01/02 07:41:34;;;;;;;;;;;3.50;99.90;;;;;;5038150;28;19919;-84
2021/01/02 07:44:00;;;;;;;;;;;3.50;99.90;;;;;;5036115;28;19917;-82
2021/01/02 07:46:25;;;;;;;;;;;3.50;99.90;;;;;;5037187;28;20001;-80
2021/01/02 07:48:54;;;;;;;;;;;3.50;99.90;;;;;;5037320;28;19921;-83
2021/01/02 07:51:20;;;;;;;;;;;3.50;99.90;;;;;;5039118;28;19913;-83
2021/01/02 07:53:51;;;;;;;;;;;3.50;99.90;;;;;;5040931;28;19920;-83
2021/01/02 07:56:36;;;;;;;;;;;3.50;99.90;;;;;;5040605;28;19913;-83
2021/01/02 07:59:37;;;;;;;;;;;3.60;99.90;;;;;;5040384;28;19910;-83
2021/01/02 08:02:07;;;;;;;;;;;3.50;99.90;;;;;;4999917;28;19934;-81
2021/01/02 08:04:33;;;;;;;;;;;3.50;99.90;;;;;;5032424;28;19913;-83
2021/01/02 08:07:00;;;;;;;;;;;3.50;99.90;;;;;;5039840;28;19920;-82
2021/01/02 08:09:26;;;;;;;;;;;3.60;99.90;;;;;;5038820;28;19913;-83
2021/01/02 08:12:04;;;;;;;;;;;3.60;99.90;;;;;;5040312;28;19909;-83
2021/01/02 08:14:31;;;;;;;;;;;3.60;99.90;;;;;;5038987;28;19913;-84
2021/01/02 08:16:58;;;;;;;;;;;3.60;99.90;;;;;;5041666;28;20353;-83
2021/01/02 08:19:24;;;;;;;;;;;3.70;99.90;;;;;;5035296;28;20447;-83
2021/01/02 08:21:50;;;;;;;;;;;3.70;99.90;;;;;;5022161;28;19917;-83
2021/01/02 08:24:17;;;;;;;;;;;3.80;99.90;;;;;;5030689;28;19952;-84
2021/01/02 08:26:42;;;;;;;;;;;3.80;99.90;;;;;;5030905;28;19946;-84
2021/01/02 08:29:07;;;;;;;;;;;3.80;99.90;;;;;;5035125;28;20305;-80
2021/01/02 08:31:34;;;;;;;;;;;3.90;99.90;;;;;;5034165;28;19913;-83
2021/01/02 08:34:01;;;;;;;;;;;3.90;99.90;;;;;;5037962;28;19920;-84
2021/01/02 08:36:27;;;;;;;;;;;4.00;99.90;;;;;;5052541;28;19973;-82
2021/01/02 08:38:59;;;;;;;;;;;4.00;99.90;;;;;;5040426;28;20358;-83
2021/01/02 08:41:25;;;;;;;;;;;4.10;99.90;;;;;;5041129;28;19917;-82
2021/01/02 08:43:52;;;;;;;;;;;4.10;99.90;;;;;;5054573;28;19928;-82
2021/01/02 08:46:22;;;;;;;;;;;4.10;99.90;;;;;;5040648;28;19917;-83
2021/01/02 08:48:47;;;;;;;;;;;4.10;99.90;;;;;;5026459;28;19917;-85
2021/01/02 08:51:26;;;;;;;;;;;4.20;99.90;;;;;;5033411;28;19913;-84
2021/01/02 08:53:51;;;;;;;;;;;4.20;99.90;;;;;;5040944;28;19955;-84
2021/01/02 08:56:27;;;;;;;;;;;4.20;99.90;;;;;;5042715;28;20424;-83
2021/01/02 08:58:53;;;;;;;;;;;4.30;99.90;;;;;;5039417;28;19928;-83
2021/01/02 09:01:18;;;;;;;;;;;4.30;99.90;;;;;;5042762;28;19913;-83
2021/01/02 09:03:44;;;;;;;;;;;4.30;99.90;;;;;;5042305;28;20286;-84
2021/01/02 09:06:24;;;;;;;;;;;4.30;99.90;;;;;;5039554;28;20432;-84
2021/01/02 09:09:06;;;;;;;;;;;4.40;99.90;;;;;;5039496;28;19913;-82
2021/01/02 09:11:50;;;;;;;;;;;4.40;99.90;;;;;;5040682;28;19909;-83
2021/01/02 09:14:16;;;;;;;;;;;4.50;99.90;;;;;;5039727;28;19935;-82
2021/01/02 09:16:42;;;;;;;;;;;4.60;99.90;;;;;;5040971;28;20029;-86
2021/01/02 09:19:22;;;;;;;;;;;4.70;99.90;;;;;;5037168;28;20433;-83
2021/01/02 09:21:47;;;;;;;;;;;4.70;99.90;;;;;;5053151;28;19976;-83
2021/01/02 09:24:19;;;;;;;;;;;4.70;99.90;;;;;;5035827;28;19952;-83
2021/01/02 09:26:45;;;;;;;;;;;4.70;99.90;;;;;;5040040;28;20262;-84
2021/01/02 09:29:14;;;;;;;;;;;4.70;99.90;;;;;;5038978;28;20023;-84
2021/01/02 09:31:40;;;;;;;;;;;4.70;99.90;;;;;;5040010;28;19913;-80
2021/01/02 09:34:06;;;;;;;;;;;4.70;99.90;;;;;;5039759;28;19956;-81
2021/01/02 09:36:31;;;;;;;;;;;4.70;99.90;;;;;;5040411;28;19914;-83
2021/01/02 09:38:57;;;;;;;;;;;4.80;99.90;;;;;;5038870;28;19913;-84
2021/01/02 09:41:23;;;;;;;;;;;4.80;99.90;;;;;;5033430;28;19913;-83
2021/01/02 09:43:49;;;;;;;;;;;4.80;99.90;;;;;;5039969;28;20490;-80
2021/01/02 09:46:18;;;;;;;;;;;4.80;99.90;;;;;;5035131;28;19920;-80
2021/01/02 09:48:47;;;;;;;;;;;4.80;99.90;;;;;;5034269;28;19979;-82
2021/01/02 09:51:12;;;;;;;;;;;4.80;99.90;;;;;;5036380;28;19916;-80
2021/01/02 09:53:38;;;;;;;;;;;4.80;99.90;;;;;;5035456;28;19913;-80
2021/01/02 09:56:04;;;;;;;;;;;4.80;99.90;;;;;;5036262;28;20003;-81
2021/01/02 09:58:29;;;;;;;;;;;4.80;99.90;;;;;;5037229;28;19913;-80
2021/01/02 10:00:55;;;;;;;;;;;4.90;99.90;;;;;;5037282;28;19909;-80
2021/01/02 10:03:21;;;;;;;;;;;4.90;99.90;;;;;;5034638;28;19928;-81
2021/01/02 10:05:46;;;;;;;;;;;4.90;99.90;;;;;;5036302;28;19913;-83
2021/01/02 10:08:12;;;;;;;;;;;5.00;99.90;;;;;;5036688;28;19937;-80
2021/01/02 10:10:37;;;;;;;;;;;5.00;99.90;;;;;;5036640;28;19917;-83
2021/01/02 10:13:03;;;;;;;;;;;5.00;99.90;;;;;;5037125;28;19917;-82
2021/01/02 10:15:29;;;;;;;;;;;5.10;99.90;;;;;;5035576;28;19957;-79
2021/01/02 10:17:55;;;;;;;;;;;5.10;99.90;;;;;;5035987;28;20343;-81
2021/01/02 10:20:20;;;;;;;;;;;5.20;99.90;;;;;;5034651;28;19921;-85
2021/01/02 10:22:46;;;;;;;;;;;5.30;99.90;;;;;;5032148;28;20004;-80
2021/01/02 10:25:12;;;;;;;;;;;5.30;99.90;;;;;;5034354;28;19913;-81
2021/01/02 10:27:37;;;;;;;;;;;5.30;99.90;;;;;;5036676;28;19909;-81
2021/01/02 10:30:04;;;;;;;;;;;5.30;99.90;;;;;;5040215;28;19909;-81
2021/01/02 10:32:30;;;;;;;;;;;5.30;99.90;;;;;;5025620;28;19959;-82
2021/01/02 10:34:56;;;;;;;;;;;5.30;99.90;;;;;;5038945;28;20196;-80
2021/01/02 10:37:23;;;;;;;;;;;5.30;99.90;;;;;;5039191;28;19913;-79
2021/01/02 10:39:48;;;;;;;;;;;5.30;99.90;;;;;;5040835;28;19916;-81
2021/01/02 10:42:16;;;;;;;;;;;5.30;99.90;;;;;;5033431;28;19909;-81
2021/01/02 10:44:45;;;;;;;;;;;5.30;99.90;;;;;;5038132;28;19924;-81
2021/01/02 10:47:11;;;;;;;;;;;5.30;99.90;;;;;;5023424;28;19936;-81
2021/01/02 10:49:36;;;;;;;;;;;5.20;99.90;;;;;;5037554;28;19917;-81
2021/01/02 10:52:02;;;;;;;;;;;5.20;99.90;;;;;;5039060;28;19975;-82
2021/01/02 10:54:27;;;;;;;;;;;5.10;99.90;;;;;;5040074;28;19972;-83
2021/01/02 10:56:53;;;;;;;;;;;5.10;99.90;;;;;;5054838;28;19966;-81
2021/01/02 10:59:23;;;;;;;;;;;5.10;99.90;;;;;;5040331;28;19935;-83
2021/01/02 11:01:50;;;;;;;;;;;5.20;99.90;;;;;;5041904;28;19972;-82
2021/01/02 11:04:17;;;;;;;;;;;5.20;99.90;;;;;;5043011;28;20574;-82
2021/01/02 11:06:43;;;;;;;;;;;5.20;99.90;;;;;;5056860;28;19913;-83
2021/01/02 11:09:10;;;;;;;;;;;5.20;99.90;;;;;;5042540;28;19924;-84
2021/01/02 11:11:35;;;;;;;;;;;5.30;99.90;;;;;;5043344;28;19913;-82
2021/01/02 11:14:01;;;;;;;;;;;5.40;99.90;;;;;;5045038;28;19913;-84
2021/01/02 11:16:30;;;;;;;;;;;5.40;99.90;;;;;;5033372;28;20327;-81
2021/01/02 11:18:55;;;;;;;;;;;5.40;99.90;;;;;;5037870;28;19980;-82
2021/01/02 11:21:21;;;;;;;;;;;5.40;99.90;;;;;;5038634;28;20378;-83
2021/01/02 11:23:46;;;;;;;;;;;5.40;99.90;;;;;;5039705;28;19917;-80
2021/01/02 11:26:12;;;;;;;;;;;5.30;99.90;;;;;;5040100;28;19913;-82
2021/01/02 11:28:37;;;;;;;;;;;5.30;99.90;;;;;;5039988;28;19909;-82
2021/01/02 11:31:03;;;;;;;;;;;5.30;99.90;;;;;;5036057;28;19912;-81
2021/01/02 11:33:29;;;;;;;;;;;5.30;99.90;;;;;;5044552;28;19913;-82
2021/01/02 11:35:54;;;;;;;;;;;5.20;99.90;;;;;;5042331;28;19935;-83
2021/01/02 11:38:20;;;;;;;;;;;5.20;99.90;;;;;;5043467;28;20003;-84
2021/01/02 11:40:45;;;;;;;;;;;5.20;99.90;;;;;;5042445;28;19912;-82
2021/01/02 11:43:10;;;;;;;;;;;5.20;99.90;;;;;;5034054;28;20344;-83
2021/01/02 11:45:36;;;;;;;;;;;5.30;99.90;;;;;;5039691;28;19923;-82
2021/01/02 11:48:01;;;;;;;;;;;5.30;99.90;;;;;;5041941;28;19917;-83
2021/01/02 11:50:27;;;;;;;;;;;5.30;99.90;;;;;;5041830;28;19920;-83
2021/01/02 11:52:52;;;;;;;;;;;5.40;99.90;;;;;;5043733;28;19913;-83
2021/01/02 11:55:18;;;;;;;;;;;5.40;99.90;;;;;;5044397;28;19909;-84
2021/01/02 11:57:43;;;;;;;;;;;5.50;99.90;;;;;;5043026;28;19913;-84
2021/01/02 12:00:09;;;;;;;;;;;5.50;99.90;;;;;;5044122;28;19936;-82
2021/01/02 12:02:36;;;;;;;;;;;5.60;99.90;;;;;;5042857;28;20428;-83
2021/01/02 12:05:02;;;;;;;;;;;5.60;99.90;;;;;;5043251;28;20284;-85
2021/01/02 12:07:27;;;;;;;;;;;5.70;99.90;;;;;;5040249;28;19920;-82
2021/01/02 12:09:53;;;;;;;;;;;5.70;99.90;;;;;;5043316;28;19913;-83
2021/01/02 12:12:18;;;;;;;;;;;5.80;99.90;;;;;;5041469;28;19917;-82
2021/01/02 12:14:43;;;;;;;;;;;5.80;99.90;;;;;;5040745;28;19936;-81
2021/01/02 12:17:10;;;;;;;;;;;5.90;99.90;;;;;;5041161;28;19919;-82
2021/01/02 12:19:36;;;;;;;;;;;5.90;99.90;;;;;;5040728;28;19948;-81
2021/01/02 12:22:03;;;;;;;;;;;5.90;99.90;;;;;;5041070;28;19909;-81
2021/01/02 12:24:29;;;;;;;;;;;5.90;99.90;;;;;;5053877;28;19977;-84
2021/01/02 12:26:59;;;;;;;;;;;5.90;99.90;;;;;;5042772;28;19944;-81
2021/01/02 12:29:25;;;;;;;;;;;5.90;99.90;;;;;;5035827;28;19914;-82
2021/01/02 12:31:52;;;;;;;;;;;5.90;99.90;;;;;;5029578;28;19945;-82
2021/01/02 12:34:19;;;;;;;;;;;5.90;99.90;;;;;;5028144;28;19909;-82
2021/01/02 12:36:45;;;;;;;;;;;5.90;99.90;;;;;;5038685;28;19916;-82
2021/01/02 12:39:21;;;;;;;;;;;5.90;99.90;;;;;;5036972;28;19913;-82
2021/01/02 12:41:47;;;;;;;;;;;6.00;99.90;;;;;;5038475;28;19948;-82
2021/01/02 12:44:12;;;;;;;;;;;6.10;99.90;;;;;;5036824;28;20381;-82
2021/01/02 12:46:39;;;;;;;;;;;6.10;99.90;;;;;;5037883;28;19909;-81
2021/01/02 12:49:05;;;;;;;;;;;6.10;99.90;;;;;;5070253;22;19931;-81
2021/01/02 12:51:30;;;;;;;;;;;6.20;99.90;;;;;;5054142;28;20004;-80
2021/01/02 12:53:56;;;;;;;;;;;6.20;99.90;;;;;;5044922;28;20195;-80
2021/01/02 12:56:21;;;;;;;;;;;6.30;99.90;;;;;;5056362;28;19909;-81
2021/01/02 12:58:46;;;;;;;;;;;6.40;99.90;;;;;;5056512;28;19917;-80
2021/01/02 13:01:12;;;;;;;;;;;6.50;99.90;;;;;;5038373;28;20016;-81
2021/01/02 13:03:37;;;;;;;;;;;6.50;99.90;;;;;;5024048;28;19917;-80
2021/01/02 13:06:03;;;;;;;;;;;6.50;99.90;;;;;;5051043;28;19932;-81
2021/01/02 13:08:28;;;;;;;;;;;6.50;99.90;;;;;;5038445;28;19959;-79
2021/01/02 13:10:54;;;;;;;;;;;6.30;99.90;;;;;;5039637;28;19909;-80
2021/01/02 13:13:19;;;;;;;;;;;6.20;99.90;;;;;;5033581;28;19917;-80
2021/01/02 13:15:45;;;;;;;;;;;6.10;99.90;;;;;;5052700;28;19909;-79
2021/01/02 13:18:10;;;;;;;;;;;6.00;99.90;;;;;;5051822;28;19963;-80
2021/01/02 13:20:36;;;;;;;;;;;5.90;99.90;;;;;;5040264;28;19962;-81
2021/01/02 13:23:02;;;;;;;;;;;5.80;99.90;;;;;;5040723;28;19912;-80
2021/01/02 13:25:27;;;;;;;;;;;5.80;99.90;;;;;;5060017;28;19920;-80
2021/01/02 13:27:53;;;;;;;;;;;5.80;99.90;;;;;;5059900;28;19913;-79
2021/01/02 13:30:18;;;;;;;;;;;5.80;99.90;;;;;;5060032;28;20042;-81
2021/01/02 13:32:45;;;;;;;;;;;5.80;99.90;;;;;;5037630;28;20050;-80
2021/01/02 13:35:10;;;;;;;;;;;5.80;99.90;;;;;;5041639;28;19909;-80
2021/01/02 13:37:36;;;;;;;;;;;5.80;99.90;;;;;;5038202;28;19916;-79
2021/01/02 13:40:02;;;;;;;;;;;5.80;99.90;;;;;;5052829;28;19963;-79
2021/01/02 13:42:28;;;;;;;;;;;5.90;99.90;;;;;;5029954;28;20071;-80
2021/01/02 13:44:53;;;;;;;;;;;5.90;99.90;;;;;;5040591;28;19920;-80
2021/01/02 13:47:19;;;;;;;;;;;5.90;99.90;;;;;;5039529;28;19912;-81
2021/01/02 13:49:46;;;;;;;;;;;5.90;99.90;;;;;;5056315;28;19924;-83
2021/01/02 13:52:12;;;;;;;;;;;5.90;99.90;;;;;;5027342;28;19913;-81
2021/01/02 13:54:37;;;;;;;;;;;5.90;99.90;;;;;;5039011;28;19917;-81
2021/01/02 13:57:03;;;;;;;;;;;5.90;99.90;;;;;;5056305;28;20369;-81
2021/01/02 13:59:28;;;;;;;;;;;5.90;99.90;;;;;;5059448;28;19924;-81
2021/01/02 14:01:55;;;;;;;;;;;5.90;99.90;;;;;;5051468;28;19965;-81
2021/01/02 14:04:20;;;;;;;;;;;5.90;99.90;;;;;;5048519;28;19916;-81
2021/01/02 14:06:47;;;;;;;;;;;5.90;99.90;;;;;;5053853;28;19921;-81
2021/01/02 14:09:12;;;;;;;;;;;5.90;99.90;;;;;;5046739;28;20049;-81
2021/01/02 14:11:38;;;;;;;;;;;5.90;99.90;;;;;;5056864;28;19927;-81
2021/01/02 14:14:04;;;;;;;;;;;5.80;99.90;;;;;;5049934;28;20332;-81
2021/01/02 14:16:29;;;;;;;;;;;5.70;99.90;;;;;;5059484;28;19920;-81
2021/01/02 14:18:55;;;;;;;;;;;5.70;99.90;;;;;;5043318;28;19909;-81
2021/01/02 14:21:21;;;;;;;;;;;5.70;99.90;;;;;;5055468;28;19916;-81
2021/01/02 14:23:47;;;;;;;;;;;5.80;99.90;;;;;;5052540;28;20009;-80
2021/01/02 14:26:15;;;;;;;;;;;5.80;99.90;;;;;;5052252;28;19913;-79
2021/01/02 14:28:41;;;;;;;;;;;5.80;99.90;;;;;;5049323;28;19913;-81
2021/01/02 14:31:06;;;;;;;;;;;5.80;99.90;;;;;;5058942;28;19936;-81
2021/01/02 14:33:32;;;;;;;;;;;5.80;99.90;;;;;;5059937;28;19973;-81
2021/01/02 14:35:57;;;;;;;;;;;5.80;99.90;;;;;;5059913;28;19916;-81
2021/01/02 14:38:22;;;;;;;;;;;5.80;99.90;;;;;;5059713;28;19912;-81